sensor_id;sensor_type;location;lat;lon;timestamp;P1;durP1;ratioP1;P2;durP2;ratioP2
49890;SDS011;35780;55.568;37.492;2023-03-12T00:00:19;12.23;;;7.22;;
49890;SDS011;35780;55.568;37.492;2023-03-12T00:02:45;9.35;;;6.00;;
49890;SDS011;35780;55.568;37.492;2023-03-12T00:05:11;6.10;;;3.95;;
49890;SDS011;35780;55.568;37.492;2023-03-12T00:07:36;9.75;;;6.93;;
49890;SDS011;35780;55.568;37.492;2023-03-12T00:10:04;15.10;;;8.70;;
49890;SDS011;35780;55.568;37.492;2023-03-12T00:12:30;7.88;;;5.15;;
49890;SDS011;35780;55.568;37.492;2023-03-12T00:14:55;15.02;;;8.68;;
49890;SDS011;35780;55.568;37.492;2023-03-12T00:17:21;5.18;;;3.03;;
49890;SDS011;35780;55.568;37.492;2023-03-12T00:19:50;14.93;;;8.57;;
49890;SDS011;35780;55.568;37.492;2023-03-12T00:22:16;17.08;;;10.75;;
49890;SDS011;35780;55.568;37.492;2023-03-12T00:24:42;11.30;;;6.25;;
49890;SDS011;35780;55.568;37.492;2023-03-12T00:27:08;17.25;;;10.63;;
49890;SDS011;35780;55.568;37.492;2023-03-12T00:29:34;17.80;;;11.68;;
49890;SDS011;35780;55.568;37.492;2023-03-12T00:32:00;21.42;;;14.23;;
49890;SDS011;35780;55.568;37.492;2023-03-12T00:34:25;13.02;;;7.75;;
49890;SDS011;35780;55.568;37.492;2023-03-12T00:36:50;12.82;;;7.22;;
49890;SDS011;35780;55.568;37.492;2023-03-12T00:39:16;13.75;;;7.63;;
49890;SDS011;35780;55.568;37.492;2023-03-12T00:41:42;16.15;;;9.73;;
49890;SDS011;35780;55.568;37.492;2023-03-12T00:44:07;16.30;;;10.13;;
49890;SDS011;35780;55.568;37.492;2023-03-12T00:46:33;15.05;;;10.60;;
49890;SDS011;35780;55.568;37.492;2023-03-12T00:48:58;17.50;;;10.50;;
49890;SDS011;35780;55.568;37.492;2023-03-12T00:51:24;15.50;;;9.13;;
49890;SDS011;35780;55.568;37.492;2023-03-12T00:53:49;17.15;;;9.73;;
49890;SDS011;35780;55.568;37.492;2023-03-12T00:56:15;9.80;;;5.07;;
49890;SDS011;35780;55.568;37.492;2023-03-12T00:58:40;28.20;;;15.27;;
49890;SDS011;35780;55.568;37.492;2023-03-12T01:01:07;34.63;;;15.73;;
49890;SDS011;35780;55.568;37.492;2023-03-12T01:03:32;58.53;;;23.08;;
49890;SDS011;35780;55.568;37.492;2023-03-12T01:05:58;82.80;;;24.30;;
49890;SDS011;35780;55.568;37.492;2023-03-12T01:08:24;25.88;;;10.77;;
49890;SDS011;35780;55.568;37.492;2023-03-12T01:10:49;37.47;;;14.13;;
49890;SDS011;35780;55.568;37.492;2023-03-12T01:13:15;187.23;;;25.80;;
49890;SDS011;35780;55.568;37.492;2023-03-12T01:15:41;188.98;;;29.40;;
49890;SDS011;35780;55.568;37.492;2023-03-12T01:18:06;156.43;;;17.95;;
49890;SDS011;35780;55.568;37.492;2023-03-12T01:20:32;458.58;;;40.80;;
49890;SDS011;35780;55.568;37.492;2023-03-12T01:22:58;569.20;;;42.58;;
49890;SDS011;35780;55.568;37.492;2023-03-12T01:25:23;48.80;;;11.15;;
49890;SDS011;35780;55.568;37.492;2023-03-12T01:27:49;161.75;;;25.60;;
49890;SDS011;35780;55.568;37.492;2023-03-12T01:30:14;366.42;;;37.33;;
49890;SDS011;35780;55.568;37.492;2023-03-12T01:32:40;385.10;;;40.75;;
49890;SDS011;35780;55.568;37.492;2023-03-12T01:35:05;838.92;;;63.35;;
49890;SDS011;35780;55.568;37.492;2023-03-12T01:37:31;381.23;;;39.55;;
49890;SDS011;35780;55.568;37.492;2023-03-12T01:39:57;883.72;;;73.90;;
49890;SDS011;35780;55.568;37.492;2023-03-12T01:42:23;471.92;;;43.97;;
49890;SDS011;35780;55.568;37.492;2023-03-12T01:45:00;312.30;;;31.42;;
49890;SDS011;35780;55.568;37.492;2023-03-12T01:47:27;284.20;;;35.88;;
49890;SDS011;35780;55.568;37.492;2023-03-12T01:49:56;476.20;;;54.72;;
49890;SDS011;35780;55.568;37.492;2023-03-12T01:52:24;284.25;;;38.95;;
49890;SDS011;35780;55.568;37.492;2023-03-12T01:54:54;300.98;;;32.55;;
49890;SDS011;35780;55.568;37.492;2023-03-12T01:57:22;137.38;;;25.48;;
49890;SDS011;35780;55.568;37.492;2023-03-12T01:59:55;334.67;;;45.92;;
49890;SDS011;35780;55.568;37.492;2023-03-12T02:02:23;399.67;;;47.40;;
49890;SDS011;35780;55.568;37.492;2023-03-12T02:05:02;420.52;;;44.50;;
49890;SDS011;35780;55.568;37.492;2023-03-12T02:07:31;557.60;;;52.42;;
49890;SDS011;35780;55.568;37.492;2023-03-12T02:09:58;537.30;;;50.97;;
49890;SDS011;35780;55.568;37.492;2023-03-12T02:12:23;335.77;;;36.65;;
49890;SDS011;35780;55.568;37.492;2023-03-12T02:14:49;429.77;;;45.58;;
49890;SDS011;35780;55.568;37.492;2023-03-12T02:17:14;196.27;;;31.35;;
49890;SDS011;35780;55.568;37.492;2023-03-12T02:19:42;205.15;;;38.00;;
49890;SDS011;35780;55.568;37.492;2023-03-12T02:22:10;133.60;;;34.75;;
49890;SDS011;35780;55.568;37.492;2023-03-12T02:27:43;82.43;;;26.77;;
49890;SDS011;35780;55.568;37.492;2023-03-12T02:30:09;107.28;;;24.27;;
49890;SDS011;35780;55.568;37.492;2023-03-12T02:32:39;109.10;;;31.73;;
49890;SDS011;35780;55.568;37.492;2023-03-12T02:35:05;86.22;;;27.45;;
49890;SDS011;35780;55.568;37.492;2023-03-12T02:37:31;72.35;;;25.80;;
49890;SDS011;35780;55.568;37.492;2023-03-12T02:40:12;75.20;;;26.92;;
49890;SDS011;35780;55.568;37.492;2023-03-12T02:42:42;84.10;;;30.45;;
49890;SDS011;35780;55.568;37.492;2023-03-12T02:45:09;53.78;;;22.67;;
49890;SDS011;35780;55.568;37.492;2023-03-12T02:47:35;63.20;;;23.48;;
49890;SDS011;35780;55.568;37.492;2023-03-12T02:50:00;92.32;;;30.48;;
49890;SDS011;35780;55.568;37.492;2023-03-12T02:52:26;52.60;;;22.15;;
49890;SDS011;35780;55.568;37.492;2023-03-12T02:54:51;84.93;;;29.25;;
49890;SDS011;35780;55.568;37.492;2023-03-12T02:57:17;54.97;;;18.77;;
49890;SDS011;35780;55.568;37.492;2023-03-12T02:59:43;58.67;;;22.80;;
49890;SDS011;35780;55.568;37.492;2023-03-12T03:02:08;67.13;;;26.77;;
49890;SDS011;35780;55.568;37.492;2023-03-12T03:04:36;62.78;;;25.90;;
49890;SDS011;35780;55.568;37.492;2023-03-12T03:07:02;76.53;;;26.05;;
49890;SDS011;35780;55.568;37.492;2023-03-12T03:09:27;101.70;;;29.38;;
49890;SDS011;35780;55.568;37.492;2023-03-12T03:11:53;62.55;;;22.60;;
49890;SDS011;35780;55.568;37.492;2023-03-12T03:14:18;71.35;;;21.65;;
49890;SDS011;35780;55.568;37.492;2023-03-12T03:16:44;75.57;;;29.50;;
49890;SDS011;35780;55.568;37.492;2023-03-12T03:19:09;83.53;;;27.27;;
49890;SDS011;35780;55.568;37.492;2023-03-12T03:21:35;64.50;;;21.85;;
49890;SDS011;35780;55.568;37.492;2023-03-12T03:24:01;70.65;;;21.45;;
49890;SDS011;35780;55.568;37.492;2023-03-12T03:26:26;55.22;;;22.00;;
49890;SDS011;35780;55.568;37.492;2023-03-12T03:28:52;34.50;;;15.35;;
49890;SDS011;35780;55.568;37.492;2023-03-12T03:31:17;45.17;;;14.13;;
49890;SDS011;35780;55.568;37.492;2023-03-12T03:33:43;106.68;;;34.65;;
49890;SDS011;35780;55.568;37.492;2023-03-12T03:36:09;128.98;;;33.70;;
49890;SDS011;35780;55.568;37.492;2023-03-12T03:38:35;75.78;;;24.27;;
49890;SDS011;35780;55.568;37.492;2023-03-12T03:41:01;153.23;;;37.58;;
49890;SDS011;35780;55.568;37.492;2023-03-12T03:43:27;54.22;;;16.77;;
49890;SDS011;35780;55.568;37.492;2023-03-12T03:45:56;160.43;;;34.75;;
49890;SDS011;35780;55.568;37.492;2023-03-12T03:48:26;180.32;;;36.15;;
49890;SDS011;35780;55.568;37.492;2023-03-12T03:50:52;115.47;;;30.48;;
49890;SDS011;35780;55.568;37.492;2023-03-12T03:53:18;74.05;;;24.05;;
49890;SDS011;35780;55.568;37.492;2023-03-12T03:55:44;115.10;;;31.45;;
49890;SDS011;35780;55.568;37.492;2023-03-12T03:58:10;101.03;;;24.38;;
49890;SDS011;35780;55.568;37.492;2023-03-12T04:00:36;61.17;;;22.90;;
49890;SDS011;35780;55.568;37.492;2023-03-12T04:03:01;100.00;;;32.33;;
49890;SDS011;35780;55.568;37.492;2023-03-12T04:05:27;96.95;;;31.60;;
49890;SDS011;35780;55.568;37.492;2023-03-12T04:07:53;100.95;;;32.05;;
49890;SDS011;35780;55.568;37.492;2023-03-12T04:10:19;93.13;;;32.55;;
49890;SDS011;35780;55.568;37.492;2023-03-12T04:12:45;78.05;;;28.63;;
49890;SDS011;35780;55.568;37.492;2023-03-12T04:15:11;66.30;;;26.10;;
49890;SDS011;35780;55.568;37.492;2023-03-12T04:17:36;63.60;;;22.30;;
49890;SDS011;35780;55.568;37.492;2023-03-12T04:20:02;53.17;;;24.30;;
49890;SDS011;35780;55.568;37.492;2023-03-12T04:22:32;71.53;;;24.23;;
49890;SDS011;35780;55.568;37.492;2023-03-12T04:24:58;64.72;;;26.98;;
49890;SDS011;35780;55.568;37.492;2023-03-12T04:27:23;68.63;;;27.85;;
49890;SDS011;35780;55.568;37.492;2023-03-12T04:29:49;30.40;;;14.75;;
49890;SDS011;35780;55.568;37.492;2023-03-12T04:32:14;63.08;;;26.85;;
49890;SDS011;35780;55.568;37.492;2023-03-12T04:34:40;23.83;;;12.23;;
49890;SDS011;35780;55.568;37.492;2023-03-12T04:37:06;32.72;;;15.32;;
49890;SDS011;35780;55.568;37.492;2023-03-12T04:39:32;50.67;;;21.90;;
49890;SDS011;35780;55.568;37.492;2023-03-12T04:41:57;60.90;;;27.02;;
49890;SDS011;35780;55.568;37.492;2023-03-12T04:44:23;66.88;;;27.95;;
49890;SDS011;35780;55.568;37.492;2023-03-12T04:46:48;36.40;;;18.02;;
49890;SDS011;35780;55.568;37.492;2023-03-12T04:49:14;53.05;;;22.35;;
49890;SDS011;35780;55.568;37.492;2023-03-12T04:51:39;60.55;;;21.98;;
49890;SDS011;35780;55.568;37.492;2023-03-12T04:54:05;41.22;;;19.52;;
49890;SDS011;35780;55.568;37.492;2023-03-12T04:56:30;81.47;;;28.30;;
49890;SDS011;35780;55.568;37.492;2023-03-12T04:58:56;50.42;;;22.85;;
49890;SDS011;35780;55.568;37.492;2023-03-12T05:01:25;34.25;;;16.05;;
49890;SDS011;35780;55.568;37.492;2023-03-12T05:03:53;64.40;;;26.65;;
49890;SDS011;35780;55.568;37.492;2023-03-12T05:06:19;46.90;;;21.20;;
49890;SDS011;35780;55.568;37.492;2023-03-12T05:08:46;55.45;;;25.73;;
49890;SDS011;35780;55.568;37.492;2023-03-12T05:11:12;38.90;;;19.33;;
49890;SDS011;35780;55.568;37.492;2023-03-12T05:13:38;46.75;;;21.25;;
49890;SDS011;35780;55.568;37.492;2023-03-12T05:16:03;23.23;;;12.35;;
49890;SDS011;35780;55.568;37.492;2023-03-12T05:18:29;37.08;;;20.40;;
49890;SDS011;35780;55.568;37.492;2023-03-12T05:21:02;36.88;;;18.67;;
49890;SDS011;35780;55.568;37.492;2023-03-12T05:23:30;29.70;;;14.35;;
49890;SDS011;35780;55.568;37.492;2023-03-12T05:25:56;52.28;;;23.23;;
49890;SDS011;35780;55.568;37.492;2023-03-12T05:28:22;37.33;;;17.48;;
49890;SDS011;35780;55.568;37.492;2023-03-12T05:30:55;59.33;;;24.20;;
49890;SDS011;35780;55.568;37.492;2023-03-12T05:33:22;45.33;;;19.65;;
49890;SDS011;35780;55.568;37.492;2023-03-12T05:35:47;42.47;;;19.52;;
49890;SDS011;35780;55.568;37.492;2023-03-12T05:38:13;73.45;;;26.98;;
49890;SDS011;35780;55.568;37.492;2023-03-12T05:40:38;50.17;;;22.52;;
49890;SDS011;35780;55.568;37.492;2023-03-12T05:43:04;54.08;;;22.30;;
49890;SDS011;35780;55.568;37.492;2023-03-12T05:45:30;45.50;;;18.50;;
49890;SDS011;35780;55.568;37.492;2023-03-12T05:47:57;50.78;;;19.35;;
49890;SDS011;35780;55.568;37.492;2023-03-12T05:50:22;94.38;;;29.63;;
49890;SDS011;35780;55.568;37.492;2023-03-12T05:52:48;109.93;;;34.05;;
49890;SDS011;35780;55.568;37.492;2023-03-12T05:55:14;74.60;;;25.85;;
49890;SDS011;35780;55.568;37.492;2023-03-12T05:57:39;104.20;;;32.95;;
49890;SDS011;35780;55.568;37.492;2023-03-12T06:00:05;100.55;;;31.95;;
49890;SDS011;35780;55.568;37.492;2023-03-12T06:02:31;70.40;;;24.17;;
49890;SDS011;35780;55.568;37.492;2023-03-12T06:04:56;25.67;;;12.55;;
49890;SDS011;35780;55.568;37.492;2023-03-12T06:07:22;79.97;;;29.65;;
49890;SDS011;35780;55.568;37.492;2023-03-12T06:09:48;60.05;;;22.95;;
49890;SDS011;35780;55.568;37.492;2023-03-12T06:12:14;66.85;;;24.70;;
49890;SDS011;35780;55.568;37.492;2023-03-12T06:14:39;67.43;;;27.00;;
49890;SDS011;35780;55.568;37.492;2023-03-12T06:17:05;75.25;;;28.15;;
49890;SDS011;35780;55.568;37.492;2023-03-12T06:19:30;76.90;;;28.95;;
49890;SDS011;35780;55.568;37.492;2023-03-12T06:21:56;59.00;;;23.05;;
49890;SDS011;35780;55.568;37.492;2023-03-12T06:24:21;58.30;;;24.77;;
49890;SDS011;35780;55.568;37.492;2023-03-12T06:26:47;82.68;;;31.50;;
49890;SDS011;35780;55.568;37.492;2023-03-12T06:29:12;70.97;;;28.70;;
49890;SDS011;35780;55.568;37.492;2023-03-12T06:31:38;53.10;;;21.50;;
49890;SDS011;35780;55.568;37.492;2023-03-12T06:34:06;98.20;;;32.28;;
49890;SDS011;35780;55.568;37.492;2023-03-12T06:36:32;129.18;;;38.88;;
49890;SDS011;35780;55.568;37.492;2023-03-12T06:38:58;80.25;;;28.30;;
49890;SDS011;35780;55.568;37.492;2023-03-12T06:41:23;110.63;;;34.30;;
49890;SDS011;35780;55.568;37.492;2023-03-12T06:43:49;111.35;;;36.20;;
49890;SDS011;35780;55.568;37.492;2023-03-12T06:46:15;183.75;;;49.97;;
49890;SDS011;35780;55.568;37.492;2023-03-12T06:48:42;107.30;;;37.90;;
49890;SDS011;35780;55.568;37.492;2023-03-12T06:51:10;141.20;;;38.22;;
49890;SDS011;35780;55.568;37.492;2023-03-12T06:53:37;100.80;;;29.10;;
49890;SDS011;35780;55.568;37.492;2023-03-12T06:56:03;55.00;;;22.58;;
49890;SDS011;35780;55.568;37.492;2023-03-12T06:58:29;105.05;;;34.30;;
49890;SDS011;35780;55.568;37.492;2023-03-12T07:00:55;105.15;;;37.17;;
49890;SDS011;35780;55.568;37.492;2023-03-12T07:03:20;90.82;;;34.40;;
49890;SDS011;35780;55.568;37.492;2023-03-12T07:05:46;89.00;;;32.95;;
49890;SDS011;35780;55.568;37.492;2023-03-12T07:08:13;92.93;;;35.20;;
49890;SDS011;35780;55.568;37.492;2023-03-12T07:10:39;64.55;;;28.00;;
49890;SDS011;35780;55.568;37.492;2023-03-12T07:13:05;48.25;;;20.77;;
49890;SDS011;35780;55.568;37.492;2023-03-12T07:15:30;77.60;;;33.40;;
49890;SDS011;35780;55.568;37.492;2023-03-12T07:18:00;68.75;;;31.15;;
49890;SDS011;35780;55.568;37.492;2023-03-12T07:20:28;84.53;;;32.05;;
49890;SDS011;35780;55.568;37.492;2023-03-12T07:22:54;48.83;;;23.55;;
49890;SDS011;35780;55.568;37.492;2023-03-12T07:25:19;75.35;;;34.00;;
49890;SDS011;35780;55.568;37.492;2023-03-12T07:27:45;77.63;;;31.73;;
49890;SDS011;35780;55.568;37.492;2023-03-12T07:30:10;78.75;;;33.85;;
49890;SDS011;35780;55.568;37.492;2023-03-12T07:32:36;76.22;;;33.40;;
49890;SDS011;35780;55.568;37.492;2023-03-12T07:35:02;79.22;;;32.97;;
49890;SDS011;35780;55.568;37.492;2023-03-12T07:37:29;71.68;;;32.10;;
49890;SDS011;35780;55.568;37.492;2023-03-12T07:39:55;74.93;;;31.33;;
49890;SDS011;35780;55.568;37.492;2023-03-12T07:42:20;73.43;;;33.17;;
49890;SDS011;35780;55.568;37.492;2023-03-12T07:44:46;68.13;;;33.00;;
49890;SDS011;35780;55.568;37.492;2023-03-12T07:47:11;51.88;;;25.65;;
49890;SDS011;35780;55.568;37.492;2023-03-12T07:49:37;68.07;;;29.63;;
49890;SDS011;35780;55.568;37.492;2023-03-12T07:52:06;60.30;;;27.30;;
49890;SDS011;35780;55.568;37.492;2023-03-12T07:54:34;55.20;;;26.45;;
49890;SDS011;35780;55.568;37.492;2023-03-12T07:57:00;63.40;;;29.58;;
49890;SDS011;35780;55.568;37.492;2023-03-12T07:59:26;47.53;;;25.10;;
49890;SDS011;35780;55.568;37.492;2023-03-12T08:01:52;52.80;;;25.00;;
49890;SDS011;35780;55.568;37.492;2023-03-12T08:04:18;53.13;;;24.92;;
49890;SDS011;35780;55.568;37.492;2023-03-12T08:06:43;59.83;;;31.70;;
49890;SDS011;35780;55.568;37.492;2023-03-12T08:09:09;60.95;;;27.50;;
49890;SDS011;35780;55.568;37.492;2023-03-12T08:11:34;53.70;;;25.08;;
49890;SDS011;35780;55.568;37.492;2023-03-12T08:14:01;52.97;;;25.58;;
49890;SDS011;35780;55.568;37.492;2023-03-12T08:16:27;43.13;;;20.00;;
49890;SDS011;35780;55.568;37.492;2023-03-12T08:18:53;62.65;;;28.83;;
49890;SDS011;35780;55.568;37.492;2023-03-12T08:21:18;54.00;;;27.40;;
49890;SDS011;35780;55.568;37.492;2023-03-12T08:23:44;33.85;;;19.15;;
49890;SDS011;35780;55.568;37.492;2023-03-12T08:26:09;39.63;;;21.73;;
49890;SDS011;35780;55.568;37.492;2023-03-12T08:28:35;43.40;;;20.38;;
49890;SDS011;35780;55.568;37.492;2023-03-12T08:31:00;40.67;;;21.67;;
49890;SDS011;35780;55.568;37.492;2023-03-12T08:33:26;58.97;;;25.77;;
49890;SDS011;35780;55.568;37.492;2023-03-12T08:35:52;47.58;;;22.73;;
49890;SDS011;35780;55.568;37.492;2023-03-12T08:38:17;50.42;;;22.88;;
49890;SDS011;35780;55.568;37.492;2023-03-12T08:40:43;40.42;;;19.50;;
49890;SDS011;35780;55.568;37.492;2023-03-12T08:43:09;44.00;;;23.45;;
49890;SDS011;35780;55.568;37.492;2023-03-12T08:45:35;39.20;;;21.05;;
49890;SDS011;35780;55.568;37.492;2023-03-12T08:48:01;39.85;;;20.35;;
49890;SDS011;35780;55.568;37.492;2023-03-12T08:50:27;36.08;;;19.85;;
49890;SDS011;35780;55.568;37.492;2023-03-12T08:52:55;37.65;;;20.17;;
49890;SDS011;35780;55.568;37.492;2023-03-12T08:55:21;39.88;;;21.83;;
49890;SDS011;35780;55.568;37.492;2023-03-12T08:57:46;39.92;;;20.33;;
49890;SDS011;35780;55.568;37.492;2023-03-12T09:00:12;33.47;;;18.45;;
49890;SDS011;35780;55.568;37.492;2023-03-12T09:02:41;34.85;;;18.55;;
49890;SDS011;35780;55.568;37.492;2023-03-12T09:05:10;28.90;;;17.45;;
49890;SDS011;35780;55.568;37.492;2023-03-12T09:07:35;29.45;;;16.67;;
49890;SDS011;35780;55.568;37.492;2023-03-12T09:10:02;28.52;;;18.67;;
49890;SDS011;35780;55.568;37.492;2023-03-12T09:12:28;25.92;;;15.00;;
49890;SDS011;35780;55.568;37.492;2023-03-12T09:14:54;31.52;;;18.75;;
49890;SDS011;35780;55.568;37.492;2023-03-12T09:17:19;32.55;;;18.08;;
49890;SDS011;35780;55.568;37.492;2023-03-12T09:19:45;26.55;;;15.38;;
49890;SDS011;35780;55.568;37.492;2023-03-12T09:22:10;22.58;;;14.52;;
49890;SDS011;35780;55.568;37.492;2023-03-12T09:24:36;13.60;;;9.05;;
49890;SDS011;35780;55.568;37.492;2023-03-12T09:27:01;25.77;;;15.30;;
49890;SDS011;35780;55.568;37.492;2023-03-12T09:29:28;21.25;;;12.30;;
49890;SDS011;35780;55.568;37.492;2023-03-12T09:31:54;17.77;;;11.27;;
49890;SDS011;35780;55.568;37.492;2023-03-12T09:34:20;16.88;;;8.55;;
49890;SDS011;35780;55.568;37.492;2023-03-12T09:36:45;18.35;;;9.40;;
49890;SDS011;35780;55.568;37.492;2023-03-12T09:39:11;23.20;;;14.50;;
49890;SDS011;35780;55.568;37.492;2023-03-12T09:41:37;18.00;;;9.88;;
49890;SDS011;35780;55.568;37.492;2023-03-12T09:44:18;17.92;;;11.50;;
49890;SDS011;35780;55.568;37.492;2023-03-12T09:46:57;17.75;;;11.35;;
49890;SDS011;35780;55.568;37.492;2023-03-12T09:52:43;18.20;;;11.60;;
49890;SDS011;35780;55.568;37.492;2023-03-12T09:55:14;16.17;;;9.50;;
49890;SDS011;35780;55.568;37.492;2023-03-12T09:57:42;14.65;;;10.55;;
49890;SDS011;35780;55.568;37.492;2023-03-12T10:00:13;6.32;;;4.43;;
49890;SDS011;35780;55.568;37.492;2023-03-12T10:05:37;5.80;;;3.28;;
49890;SDS011;35780;55.568;37.492;2023-03-12T10:10:36;12.80;;;8.50;;
49890;SDS011;35780;55.568;37.492;2023-03-12T10:13:16;10.75;;;7.97;;
49890;SDS011;35780;55.568;37.492;2023-03-12T10:26:39;11.52;;;8.32;;
49890;SDS011;35780;55.568;37.492;2023-03-12T10:31:49;23.05;;;14.38;;
49890;SDS011;35780;55.568;37.492;2023-03-12T10:34:16;16.40;;;9.20;;
49890;SDS011;35780;55.568;37.492;2023-03-12T10:36:49;10.68;;;7.10;;
49890;SDS011;35780;55.568;37.492;2023-03-12T10:39:16;10.52;;;7.88;;
49890;SDS011;35780;55.568;37.492;2023-03-12T10:41:43;11.65;;;8.82;;
49890;SDS011;35780;55.568;37.492;2023-03-12T10:44:13;10.27;;;7.47;;
49890;SDS011;35780;55.568;37.492;2023-03-12T10:46:51;11.82;;;9.23;;
49890;SDS011;35780;55.568;37.492;2023-03-12T10:49:31;12.52;;;8.65;;
49890;SDS011;35780;55.568;37.492;2023-03-12T10:54:39;11.18;;;8.73;;
49890;SDS011;35780;55.568;37.492;2023-03-12T10:57:06;12.43;;;9.60;;
49890;SDS011;35780;55.568;37.492;2023-03-12T10:59:33;17.98;;;10.15;;
49890;SDS011;35780;55.568;37.492;2023-03-12T11:02:00;9.73;;;7.43;;
49890;SDS011;35780;55.568;37.492;2023-03-12T11:04:27;16.10;;;10.55;;
49890;SDS011;35780;55.568;37.492;2023-03-12T11:12:32;11.55;;;9.13;;
49890;SDS011;35780;55.568;37.492;2023-03-12T11:15:22;16.08;;;11.60;;
49890;SDS011;35780;55.568;37.492;2023-03-12T11:17:50;10.82;;;8.40;;
49890;SDS011;35780;55.568;37.492;2023-03-12T11:20:17;12.52;;;10.00;;
49890;SDS011;35780;55.568;37.492;2023-03-12T11:22:45;10.65;;;7.13;;
49890;SDS011;35780;55.568;37.492;2023-03-12T11:25:19;13.18;;;9.77;;
49890;SDS011;35780;55.568;37.492;2023-03-12T11:27:50;11.50;;;8.63;;
49890;SDS011;35780;55.568;37.492;2023-03-12T11:30:21;7.90;;;6.03;;
49890;SDS011;35780;55.568;37.492;2023-03-12T11:32:49;2.65;;;1.83;;
49890;SDS011;35780;55.568;37.492;2023-03-12T11:35:16;7.28;;;3.13;;
49890;SDS011;35780;55.568;37.492;2023-03-12T11:37:54;4.25;;;2.13;;
49890;SDS011;35780;55.568;37.492;2023-03-12T12:27:18;1.08;;;0.80;;
49890;SDS011;35780;55.568;37.492;2023-03-12T12:32:26;4.60;;;1.95;;
49890;SDS011;35780;55.568;37.492;2023-03-12T12:40:47;3.10;;;1.92;;
49890;SDS011;35780;55.568;37.492;2023-03-12T12:45:45;3.38;;;1.58;;
49890;SDS011;35780;55.568;37.492;2023-03-12T12:48:16;3.63;;;1.83;;
49890;SDS011;35780;55.568;37.492;2023-03-12T12:50:46;2.17;;;1.27;;
49890;SDS011;35780;55.568;37.492;2023-03-12T12:53:19;3.90;;;1.10;;
49890;SDS011;35780;55.568;37.492;2023-03-12T12:56:08;1.40;;;0.90;;
49890;SDS011;35780;55.568;37.492;2023-03-12T12:58:57;2.22;;;1.05;;
49890;SDS011;35780;55.568;37.492;2023-03-12T13:01:47;0.90;;;0.68;;
49890;SDS011;35780;55.568;37.492;2023-03-12T13:04:20;1.38;;;0.88;;
49890;SDS011;35780;55.568;37.492;2023-03-12T13:14:41;1.75;;;0.82;;
49890;SDS011;35780;55.568;37.492;2023-03-12T13:20:18;1.50;;;1.08;;
49890;SDS011;35780;55.568;37.492;2023-03-12T13:22:56;2.20;;;1.27;;
49890;SDS011;35780;55.568;37.492;2023-03-12T13:28:35;2.90;;;1.50;;
49890;SDS011;35780;55.568;37.492;2023-03-12T13:34:28;5.57;;;1.90;;
49890;SDS011;35780;55.568;37.492;2023-03-12T13:36:58;3.40;;;1.60;;
49890;SDS011;35780;55.568;37.492;2023-03-12T13:39:35;2.90;;;1.83;;
49890;SDS011;35780;55.568;37.492;2023-03-12T13:42:01;1.73;;;1.27;;
49890;SDS011;35780;55.568;37.492;2023-03-12T13:44:49;3.10;;;1.20;;
49890;SDS011;35780;55.568;37.492;2023-03-12T13:47:25;1.75;;;1.27;;
49890;SDS011;35780;55.568;37.492;2023-03-12T13:52:21;1.52;;;1.10;;
49890;SDS011;35780;55.568;37.492;2023-03-12T13:54:49;4.95;;;2.22;;
49890;SDS011;35780;55.568;37.492;2023-03-12T13:59:55;2.35;;;1.33;;
49890;SDS011;35780;55.568;37.492;2023-03-12T14:02:32;3.05;;;1.70;;
49890;SDS011;35780;55.568;37.492;2023-03-12T14:05:06;4.85;;;1.70;;
49890;SDS011;35780;55.568;37.492;2023-03-12T14:10:09;4.68;;;1.40;;
49890;SDS011;35780;55.568;37.492;2023-03-12T14:15:23;6.10;;;1.30;;
49890;SDS011;35780;55.568;37.492;2023-03-12T14:18:01;65.50;;;3.70;;
49890;SDS011;35780;55.568;37.492;2023-03-12T14:20:33;2.67;;;1.05;;
49890;SDS011;35780;55.568;37.492;2023-03-12T14:23:03;1.52;;;1.00;;
49890;SDS011;35780;55.568;37.492;2023-03-12T14:28:00;2.28;;;1.30;;
49890;SDS011;35780;55.568;37.492;2023-03-12T14:33:35;18.88;;;1.25;;
49890;SDS011;35780;55.568;37.492;2023-03-12T14:36:08;2.15;;;1.40;;
49890;SDS011;35780;55.568;37.492;2023-03-12T14:38:41;2.83;;;1.10;;
49890;SDS011;35780;55.568;37.492;2023-03-12T14:41:12;1.85;;;1.27;;
49890;SDS011;35780;55.568;37.492;2023-03-12T14:43:41;3.83;;;1.30;;
49890;SDS011;35780;55.568;37.492;2023-03-12T14:46:43;1.98;;;1.23;;
49890;SDS011;35780;55.568;37.492;2023-03-12T14:48:59;1.83;;;1.00;;
49890;SDS011;35780;55.568;37.492;2023-03-12T14:51:26;2.33;;;1.20;;
49890;SDS011;35780;55.568;37.492;2023-03-12T14:53:53;4.47;;;1.33;;
49890;SDS011;35780;55.568;37.492;2023-03-12T14:56:28;2.55;;;1.60;;
49890;SDS011;35780;55.568;37.492;2023-03-12T14:58:57;3.45;;;1.52;;
49890;SDS011;35780;55.568;37.492;2023-03-12T15:01:31;3.80;;;1.65;;
49890;SDS011;35780;55.568;37.492;2023-03-12T15:04:01;3.28;;;1.88;;
49890;SDS011;35780;55.568;37.492;2023-03-12T15:08:55;3.38;;;1.63;;
49890;SDS011;35780;55.568;37.492;2023-03-12T15:11:25;2.83;;;1.95;;
49890;SDS011;35780;55.568;37.492;2023-03-12T15:13:55;3.22;;;1.85;;
49890;SDS011;35780;55.568;37.492;2023-03-12T15:16:29;3.00;;;1.90;;
49890;SDS011;35780;55.568;37.492;2023-03-12T15:18:55;3.22;;;2.13;;
49890;SDS011;35780;55.568;37.492;2023-03-12T15:21:20;4.90;;;1.58;;
49890;SDS011;35780;55.568;37.492;2023-03-12T15:23:47;4.28;;;2.13;;
49890;SDS011;35780;55.568;37.492;2023-03-12T15:26:15;4.22;;;2.40;;
49890;SDS011;35780;55.568;37.492;2023-03-12T15:31:21;3.83;;;2.55;;
49890;SDS011;35780;55.568;37.492;2023-03-12T15:33:58;3.45;;;2.03;;
49890;SDS011;35780;55.568;37.492;2023-03-12T15:36:26;13.32;;;2.33;;
49890;SDS011;35780;55.568;37.492;2023-03-12T15:38:53;3.67;;;2.25;;
49890;SDS011;35780;55.568;37.492;2023-03-12T15:41:42;2.95;;;1.88;;
49890;SDS011;35780;55.568;37.492;2023-03-12T15:44:13;4.10;;;2.50;;
49890;SDS011;35780;55.568;37.492;2023-03-12T15:46:46;4.15;;;2.40;;
49890;SDS011;35780;55.568;37.492;2023-03-12T15:49:20;3.63;;;2.47;;
49890;SDS011;35780;55.568;37.492;2023-03-12T15:55:04;5.80;;;3.20;;
49890;SDS011;35780;55.568;37.492;2023-03-12T15:57:34;5.05;;;3.55;;
49890;SDS011;35780;55.568;37.492;2023-03-12T16:02:49;4.90;;;3.03;;
49890;SDS011;35780;55.568;37.492;2023-03-12T16:05:19;26.38;;;3.97;;
49890;SDS011;35780;55.568;37.492;2023-03-12T16:07:47;5.20;;;3.33;;
49890;SDS011;35780;55.568;37.492;2023-03-12T16:10:14;5.32;;;3.22;;
49890;SDS011;35780;55.568;37.492;2023-03-12T16:12:42;5.63;;;3.60;;
49890;SDS011;35780;55.568;37.492;2023-03-12T16:15:12;5.88;;;3.70;;
49890;SDS011;35780;55.568;37.492;2023-03-12T16:17:39;19.10;;;4.60;;
49890;SDS011;35780;55.568;37.492;2023-03-12T16:20:04;8.73;;;4.13;;
49890;SDS011;35780;55.568;37.492;2023-03-12T16:22:30;7.20;;;3.40;;
49890;SDS011;35780;55.568;37.492;2023-03-12T16:24:56;7.15;;;3.30;;
49890;SDS011;35780;55.568;37.492;2023-03-12T16:27:21;5.15;;;3.10;;
49890;SDS011;35780;55.568;37.492;2023-03-12T16:29:47;5.95;;;3.50;;
49890;SDS011;35780;55.568;37.492;2023-03-12T16:32:13;6.80;;;3.60;;